Terminal Aerodrome Forecast
Issued by NWS Blacksburg, VA

Current Version | Previous Version | Text Only | Print | Product List | Glossary Off
Versions: 1 2 3 4 5 6 7 8 9 10 11 12 13 14 15 16 17 18

000
FTUS41 KRNK 222336
TAFBLF
TAF
KBLF 222336Z 2300/2324 30010G20KT P6SM SCT035 BKN045 OVC080
     FM230200 30012G22KT P6SM BKN035
     FM230400 30010G20KT P6SM OVC025
     FM231500 31013G25KT P6SM SCT030=

USA.gov is the U.S. government's official web portal to all federal, state and local government web resources and services.